Huvudsida
METAR-TAF:

METAR-TAF

Flygplatser :

Agen, Frankrike

latitud: 44-11N, longitud: 000-36E, höjd: 61 m

Aktuellt väderrapport

Denna rapport gjordes för 20 minuter sedan, klockan 22:00 UTC
Vind 8 kt från syd/sydost, varierande mellan ost/sydost och syd
Temperatur 22°C
Fuktighet 53%
Tryck 1025 hPa
Sikt 10 km eller mer
Inga moln under 1 500 m eller inga cumulonimbus

METAR: LFBA 272200Z AUTO 16008KT 120V190 CAVOK 22/12 Q1025

Tid: 00:20 (22:20 UTC)


TAF: saknas

Aktuella väderrapporter och prognoser från 4000 flygplatser (METAR- och TAF-rapporter).

De tillgängliga stationerna syns som gula och röda prickar på kartan.

För musen över prickarna för att se namnen på stationerna.

Klicka sedan för att få väderrapporter och prognoser.

För att ändra kartan: Klicka på de gröna knapparna med ett svart kors på för att zooma in; den gröna knappen med ett streck på för att zooma ut; eller på de gröna pilarna för angränsande kartor.


METAR-TAF: